createdAt,value
2022-11-23T00:01:23.231Z,97422.97
2022-11-23T00:03:53.482Z,97424.06
2022-11-23T00:06:24.155Z,97413.34
2022-11-23T00:08:51.539Z,97410.28
2022-11-23T00:11:19.758Z,97413.66
2022-11-23T00:13:47.305Z,97421.03
2022-11-23T00:16:22.319Z,97417.56
2022-11-23T00:18:51.316Z,97409.38
2022-11-23T00:21:20.287Z,97416.94
2022-11-23T00:23:47.098Z,97411.69
2022-11-23T00:26:14.423Z,97410.59
2022-11-23T00:28:42.210Z,97418.75
2022-11-23T00:31:11.281Z,97421.13
2022-11-23T00:33:38.129Z,97412.53
2022-11-23T00:36:13.424Z,97405.59
2022-11-23T00:38:41.557Z,97400.50
2022-11-23T00:41:11.672Z,97395.03
2022-11-23T00:43:38.490Z,97397.53
2022-11-23T00:46:21.448Z,97408.69
2022-11-23T00:48:50.193Z,97410.19
2022-11-23T00:51:21.254Z,97410.06
2022-11-23T00:53:50.243Z,97404.91
2022-11-23T00:56:18.209Z,97404.59
2022-11-23T00:58:49.850Z,97410.56
2022-11-23T01:01:18.791Z,97409.19
2022-11-23T01:03:48.459Z,97417.16
2022-11-23T01:06:18.432Z,97413.56
2022-11-23T01:08:50.577Z,97419.28
2022-11-23T01:11:17.571Z,97406.53
2022-11-23T01:13:44.386Z,97399.00
2022-11-23T01:16:23.862Z,97398.19
2022-11-23T01:19:00.028Z,97403.06
2022-11-23T01:21:29.141Z,97403.84
2022-11-23T01:23:56.101Z,97406.97
2022-11-23T01:26:23.482Z,97417.28
2022-11-23T01:28:50.824Z,97416.97
2022-11-23T01:31:26.718Z,97414.13
2022-11-23T01:33:55.491Z,97414.94
2022-11-23T01:36:25.600Z,97417.41
2022-11-23T01:38:52.649Z,97407.84
2022-11-23T01:41:22.226Z,97409.75
2022-11-23T01:43:49.942Z,97412.63
2022-11-23T01:46:17.415Z,97413.63
2022-11-23T01:48:58.032Z,97416.63
2022-11-23T01:51:41.071Z,97413.44
2022-11-23T01:54:16.380Z,97423.44
2022-11-23T01:56:47.961Z,97428.97
2022-11-23T01:59:16.888Z,97422.75
2022-11-23T02:01:44.207Z,97421.66
2022-11-23T02:04:22.340Z,97431.00
2022-11-23T02:06:49.517Z,97425.16
2022-11-23T02:09:17.505Z,97431.75
2022-11-23T02:11:44.745Z,97437.22
2022-11-23T02:14:12.279Z,97441.56
2022-11-23T02:16:39.318Z,97451.78
2022-11-23T02:19:12.745Z,97439.88
2022-11-23T02:21:42.234Z,97440.31
2022-11-23T02:24:22.868Z,97448.88
2022-11-23T02:26:49.949Z,97440.53
2022-11-23T02:29:27.428Z,97439.38
2022-11-23T02:31:54.546Z,97438.28
2022-11-23T02:34:21.406Z,97438.41
2022-11-23T02:36:50.078Z,97447.28
2022-11-23T02:39:36.863Z,97435.09
2022-11-23T02:42:05.159Z,97440.41
2022-11-23T02:44:51.596Z,97436.81
2022-11-23T02:47:18.422Z,97442.19
2022-11-23T02:49:49.419Z,97432.72
2022-11-23T02:52:17.457Z,97437.91
2022-11-23T02:54:44.300Z,97437.91
2022-11-23T02:57:11.092Z,97440.59
2022-11-23T02:59:37.934Z,97429.56
2022-11-23T03:02:05.450Z,97441.03
2022-11-23T03:04:32.232Z,97438.53
2022-11-23T03:06:59.348Z,97436.69
2022-11-23T03:09:26.335Z,97433.41
2022-11-23T03:11:54.080Z,97431.72
2022-11-23T03:14:21.173Z,97436.28
2022-11-23T03:16:47.963Z,97439.91
2022-11-23T03:19:15.490Z,97436.84
2022-11-23T03:21:42.348Z,97436.75
2022-11-23T03:24:09.131Z,97442.13
2022-11-23T03:26:35.937Z,97441.38
2022-11-23T03:29:02.831Z,97451.53
2022-11-23T03:31:29.553Z,97446.38
2022-11-23T03:33:56.340Z,97449.06
2022-11-23T03:36:23.082Z,97448.47
2022-11-23T03:38:49.817Z,97442.78
2022-11-23T03:41:16.524Z,97441.69
2022-11-23T03:43:43.293Z,97439.00
2022-11-23T03:46:10.036Z,97428.56
2022-11-23T03:48:36.857Z,97432.03
2022-11-23T03:51:03.600Z,97429.66
2022-11-23T03:53:30.373Z,97427.25
2022-11-23T03:55:58.119Z,97422.09
2022-11-23T03:58:24.935Z,97413.16
2022-11-23T04:00:51.795Z,97413.75
2022-11-23T04:03:18.609Z,97416.44
2022-11-23T04:05:45.314Z,97415.44
2022-11-23T04:08:12.247Z,97419.78
2022-11-23T04:10:39.009Z,97418.91
2022-11-23T04:13:05.827Z,97422.31
2022-11-23T04:15:32.701Z,97428.09
2022-11-23T04:17:59.575Z,97420.53
2022-11-23T04:20:26.530Z,97421.44
2022-11-23T04:22:53.616Z,97422.72
2022-11-23T04:25:20.353Z,97426.31
2022-11-23T04:27:47.139Z,97425.00
2022-11-23T04:30:14.574Z,97416.75
2022-11-23T04:32:45.080Z,97424.22
2022-11-23T04:35:12.127Z,97409.19
2022-11-23T04:37:39.041Z,97408.47
2022-11-23T04:40:06.785Z,97403.69
2022-11-23T04:42:33.583Z,97404.00
2022-11-23T04:45:00.320Z,97406.28
2022-11-23T04:47:27.045Z,97404.59
2022-11-23T04:49:53.764Z,97398.34
2022-11-23T04:52:20.522Z,97397.03
2022-11-23T04:54:47.238Z,97405.00
2022-11-23T04:57:14.005Z,97408.78
2022-11-23T04:59:40.964Z,97398.63
2022-11-23T05:02:07.943Z,97405.59
2022-11-23T05:04:35.185Z,97410.66
2022-11-23T05:07:01.957Z,97412.31
2022-11-23T05:09:28.627Z,97412.59
2022-11-23T05:11:55.318Z,97409.72
2022-11-23T05:14:22.066Z,97412.41
2022-11-23T05:16:48.795Z,97403.31
2022-11-23T05:19:15.564Z,97404.72
2022-11-23T05:21:42.336Z,97407.31
2022-11-23T05:24:09.263Z,97410.28
2022-11-23T05:26:36.057Z,97403.41
2022-11-23T05:29:02.968Z,97404.56
2022-11-23T05:31:29.683Z,97401.69
2022-11-23T05:33:56.499Z,97405.75
2022-11-23T05:36:26.567Z,97406.22
2022-11-23T05:38:53.837Z,97402.81
2022-11-23T05:41:20.596Z,97395.22
2022-11-23T05:43:47.340Z,97397.41
2022-11-23T05:46:14.464Z,97395.94
2022-11-23T05:48:41.162Z,97396.94
2022-11-23T05:51:07.969Z,97400.34
2022-11-23T05:53:35.097Z,97401.34
2022-11-23T05:56:03.034Z,97390.25
2022-11-23T05:58:30.378Z,97401.47
2022-11-23T06:01:01.117Z,97400.66
2022-11-23T06:03:28.052Z,97403.84
2022-11-23T06:05:55.951Z,97412.31
2022-11-23T06:08:22.718Z,97405.00
2022-11-23T06:10:49.440Z,97404.59
2022-11-23T06:13:16.158Z,97411.59
2022-11-23T06:15:43.017Z,97411.59
2022-11-23T06:18:10.537Z,97418.56
2022-11-23T06:20:37.362Z,97413.38
2022-11-23T06:23:04.167Z,97416.66
2022-11-23T06:25:31.622Z,97416.94
2022-11-23T06:28:01.553Z,97412.16
2022-11-23T06:30:30.059Z,97406.78
2022-11-23T06:32:57.643Z,97411.16
2022-11-23T06:35:24.702Z,97410.38
2022-11-23T06:37:54.540Z,97416.94
2022-11-23T06:40:22.660Z,97416.84
2022-11-23T06:42:49.489Z,97411.97
2022-11-23T06:45:16.447Z,97412.16
2022-11-23T06:47:43.846Z,97411.75
2022-11-23T06:50:10.598Z,97418.50
2022-11-23T06:52:37.304Z,97417.19
2022-11-23T06:55:04.258Z,97423.97
2022-11-23T06:57:30.950Z,97433.22
2022-11-23T06:59:57.777Z,97430.22
2022-11-23T07:02:24.451Z,97429.22
2022-11-23T07:04:53.024Z,97428.53
2022-11-23T07:07:19.932Z,97424.66
2022-11-23T07:09:48.187Z,97435.22
2022-11-23T07:12:14.987Z,97427.44
2022-11-23T07:14:41.692Z,97431.56
2022-11-23T07:17:08.439Z,97435.47
2022-11-23T07:19:35.331Z,97435.75
2022-11-23T07:22:02.212Z,97442.50
2022-11-23T07:24:31.765Z,97442.31
2022-11-23T07:27:03.180Z,97438.81
2022-11-23T07:29:30.441Z,97439.63
2022-11-23T07:31:57.357Z,97433.16
2022-11-23T07:34:24.103Z,97429.16
2022-11-23T07:36:50.812Z,97445.00
2022-11-23T07:39:17.474Z,97440.63
2022-11-23T07:41:44.251Z,97439.03
2022-11-23T07:44:11.108Z,97437.13
2022-11-23T07:46:37.841Z,97440.13
2022-11-23T07:49:04.690Z,97437.59
2022-11-23T07:51:31.540Z,97435.09
2022-11-23T07:53:58.217Z,97444.81
2022-11-23T07:56:25.347Z,97442.66
2022-11-23T07:58:52.146Z,97444.47
2022-11-23T08:01:19.564Z,97444.88
2022-11-23T08:03:46.533Z,97443.69
2022-11-23T08:06:14.079Z,97442.59
2022-11-23T08:08:42.004Z,97443.78
2022-11-23T08:11:09.644Z,97439.34
2022-11-23T08:13:37.267Z,97440.06
2022-11-23T08:16:07.038Z,97441.56
2022-11-23T08:18:33.769Z,97445.16
2022-11-23T08:21:00.976Z,97434.19
2022-11-23T08:23:28.040Z,97431.13
2022-11-23T08:25:54.761Z,97434.09
2022-11-23T08:28:21.968Z,97433.06
2022-11-23T08:30:49.253Z,97440.66
2022-11-23T08:33:16.224Z,97435.53
2022-11-23T08:35:42.958Z,97439.34
2022-11-23T08:38:10.230Z,97442.00
2022-11-23T08:40:37.805Z,97440.41
2022-11-23T08:43:05.567Z,97431.34
2022-11-23T08:45:32.305Z,97440.00
2022-11-23T08:48:00.847Z,97429.59
2022-11-23T08:50:29.345Z,97439.31
2022-11-23T08:52:57.684Z,97440.78
2022-11-23T08:55:25.852Z,97439.44
2022-11-23T08:57:59.148Z,97434.16
2022-11-23T09:00:26.972Z,97439.63
2022-11-23T09:02:54.754Z,97446.81
2022-11-23T09:05:21.874Z,97443.31
2022-11-23T09:07:48.711Z,97443.22
2022-11-23T09:10:18.875Z,97437.53
2022-11-23T09:12:47.269Z,97432.91
2022-11-23T09:15:14.927Z,97439.75
2022-11-23T09:17:41.887Z,97442.31
2022-11-23T09:20:10.217Z,97445.63
2022-11-23T09:22:37.384Z,97444.69
2022-11-23T09:25:04.874Z,97450.41
2022-11-23T09:27:31.711Z,97437.69
2022-11-23T09:29:58.501Z,97442.09
2022-11-23T09:32:25.275Z,97439.75
2022-11-23T09:34:52.038Z,97442.56
2022-11-23T09:37:18.717Z,97452.09
2022-11-23T09:39:45.448Z,97457.47
2022-11-23T09:42:41.095Z,97455.53
2022-11-23T09:45:20.106Z,97452.16
2022-11-23T09:48:04.443Z,97454.31
2022-11-23T09:50:56.560Z,97454.75
2022-11-23T09:53:42.394Z,97447.47
2022-11-23T09:56:27.483Z,97438.97
2022-11-23T09:58:57.498Z,97445.69
2022-11-23T10:01:25.544Z,97435.78
2022-11-23T10:03:52.367Z,97442.13
2022-11-23T10:06:31.294Z,97443.66
2022-11-23T10:09:04.762Z,97435.06
2022-11-23T10:12:12.823Z,97443.19
2022-11-23T10:14:58.312Z,97432.66
2022-11-23T10:17:31.872Z,97440.28
2022-11-23T10:20:11.526Z,97436.94
2022-11-23T10:22:56.835Z,97436.16
2022-11-23T10:25:24.853Z,97430.84
2022-11-23T10:27:57.528Z,97425.06
2022-11-23T10:30:24.338Z,97423.22
2022-11-23T10:33:02.830Z,97416.25
2022-11-23T10:35:35.025Z,97428.06
2022-11-23T10:38:19.197Z,97428.94
2022-11-23T10:41:08.616Z,97419.06
2022-11-23T10:43:39.661Z,97421.09
2022-11-23T10:46:24.782Z,97420.75
2022-11-23T10:48:52.654Z,97426.16
2022-11-23T10:51:32.868Z,97419.97
2022-11-23T10:54:17.825Z,97421.28
2022-11-23T10:56:49.565Z,97413.25
2022-11-23T10:59:33.289Z,97417.69
2022-11-23T11:02:19.799Z,97412.50
2022-11-23T11:04:48.128Z,97408.72
2022-11-23T11:07:36.953Z,97405.34
2022-11-23T11:10:05.770Z,97401.06
2022-11-23T11:12:34.463Z,97403.19
2022-11-23T11:15:11.993Z,97399.03
2022-11-23T11:17:41.695Z,97392.47
2022-11-23T11:20:27.241Z,97391.53
2022-11-23T11:23:16.628Z,97391.53
2022-11-23T11:25:43.871Z,97386.78
2022-11-23T11:28:33.502Z,97377.94
2022-11-23T11:31:15.522Z,97374.78
2022-11-23T11:33:51.161Z,97377.19
2022-11-23T11:36:18.308Z,97367.94
2022-11-23T11:39:17.144Z,97362.00
2022-11-23T11:41:42.823Z,97364.59
2022-11-23T11:44:19.138Z,97358.22
2022-11-23T11:46:54.289Z,97355.50
2022-11-23T11:49:34.075Z,97358.00
2022-11-23T11:52:13.691Z,97354.59
2022-11-23T11:54:52.033Z,97351.66
2022-11-23T11:57:24.153Z,97355.25
2022-11-23T11:59:57.565Z,97346.34
2022-11-23T12:02:27.019Z,97351.41
2022-11-23T12:05:09.211Z,97351.22
2022-11-23T12:07:39.072Z,97339.53
2022-11-23T12:10:17.345Z,97347.28
2022-11-23T12:12:44.541Z,97341.97
2022-11-23T12:15:49.341Z,97345.44
2022-11-23T12:18:45.806Z,97353.75
2022-11-23T12:21:41.182Z,97352.94
2022-11-23T12:24:29.582Z,97348.63
2022-11-23T12:27:14.902Z,97350.59
2022-11-23T12:30:03.929Z,97347.03
2022-11-23T12:32:45.388Z,97352.06
2022-11-23T12:35:42.251Z,97339.88
2022-11-23T12:38:35.917Z,97338.06
2022-11-23T12:41:23.540Z,97339.97
2022-11-23T12:44:08.129Z,97334.91
2022-11-23T12:46:46.064Z,97325.72
2022-11-23T12:49:44.379Z,97316.38
2022-11-23T12:52:45.606Z,97311.50
2022-11-23T12:55:24.091Z,97320.09
2022-11-23T12:58:23.378Z,97311.59
2022-11-23T13:00:56.125Z,97310.16
2022-11-23T13:03:40.205Z,97310.16
2022-11-23T13:07:26.268Z,97304.59
2022-11-23T13:09:55.232Z,97307.31
2022-11-23T13:12:53.291Z,97308.78
2022-11-23T13:15:46.975Z,97312.81
2022-11-23T13:18:16.983Z,97306.69
2022-11-23T13:21:01.748Z,97305.47
2022-11-23T13:23:28.562Z,97296.88
2022-11-23T13:26:15.781Z,97300.84
2022-11-23T13:28:43.944Z,97293.03
2022-11-23T13:31:16.949Z,97297.34
2022-11-23T13:33:49.467Z,97288.44
2022-11-23T13:37:10.475Z,97280.03
2022-11-23T13:40:00.453Z,97280.94
2022-11-23T13:42:32.748Z,97283.09
2022-11-23T13:45:21.470Z,97276.41
2022-11-23T13:48:06.648Z,97268.22
2022-11-23T13:50:34.031Z,97275.72
2022-11-23T13:53:01.555Z,97270.59
2022-11-23T13:55:37.790Z,97266.38
2022-11-23T13:58:26.636Z,97254.75
2022-11-23T14:00:56.071Z,97262.63
2022-11-23T14:03:44.765Z,97255.28
2022-11-23T14:06:47.804Z,97254.94
2022-11-23T14:09:35.125Z,97247.81
2022-11-23T14:12:11.354Z,97248.94
2022-11-23T14:14:53.886Z,97238.53
2022-11-23T14:17:52.185Z,97230.41
2022-11-23T14:20:42.369Z,97228.06
2022-11-23T14:23:34.307Z,97220.09
2022-11-23T14:26:19.274Z,97227.25
2022-11-23T14:29:18.211Z,97231.09
2022-11-23T14:32:19.300Z,97223.47
2022-11-23T14:34:55.047Z,97212.41
2022-11-23T14:37:59.747Z,97196.81
2022-11-23T14:41:04.106Z,97196.03
2022-11-23T14:43:33.091Z,97201.47
2022-11-23T14:46:07.241Z,97193.78
2022-11-23T14:48:36.052Z,97201.56
2022-11-23T14:51:06.475Z,97204.50
2022-11-23T14:53:43.943Z,97196.22
2022-11-23T14:56:22.409Z,97197.06
2022-11-23T14:58:50.152Z,97197.28
2022-11-23T15:01:22.736Z,97195.91
2022-11-23T15:04:23.963Z,97196.41
2022-11-23T15:06:54.598Z,97194.56
2022-11-23T15:09:50.025Z,97194.16
2022-11-23T15:12:28.909Z,97204.84
2022-11-23T15:14:59.977Z,97201.34
2022-11-23T15:17:27.538Z,97209.00
2022-11-23T15:19:57.020Z,97206.28
2022-11-23T15:22:24.657Z,97207.41
2022-11-23T15:24:52.072Z,97206.63
2022-11-23T15:27:29.950Z,97205.81
2022-11-23T15:30:03.311Z,97214.59
2022-11-23T15:32:34.763Z,97209.19
2022-11-23T15:35:07.336Z,97212.69
2022-11-23T15:37:49.126Z,97227.34
2022-11-23T15:40:18.397Z,97230.03
2022-11-23T15:42:48.668Z,97222.59
2022-11-23T15:45:34.981Z,97236.94
2022-11-23T15:48:20.319Z,97233.97
2022-11-23T15:50:48.616Z,97241.72
2022-11-23T15:53:15.416Z,97240.50
2022-11-23T15:55:43.132Z,97233.97
2022-11-23T15:58:15.298Z,97237.44
2022-11-23T16:00:49.762Z,97236.97
2022-11-23T16:03:33.900Z,97243.03
2022-11-23T16:06:18.393Z,97241.44
2022-11-23T16:08:45.174Z,97249.44
2022-11-23T16:11:32.496Z,97259.13
2022-11-23T16:14:14.736Z,97272.13
2022-11-23T16:16:45.768Z,97282.75
2022-11-23T16:19:24.498Z,97291.34
2022-11-23T16:21:59.219Z,97296.56
2022-11-23T16:24:30.832Z,97306.72
2022-11-23T16:26:58.875Z,97312.75
2022-11-23T16:29:36.616Z,97324.69
2022-11-23T16:32:07.274Z,97329.81
2022-11-23T16:34:35.290Z,97339.19
2022-11-23T16:37:03.924Z,97348.09
2022-11-23T16:39:30.738Z,97348.41
2022-11-23T16:41:57.921Z,97348.28
2022-11-23T16:44:24.874Z,97355.47
2022-11-23T16:46:51.722Z,97344.53
2022-11-23T16:49:21.677Z,97350.28
2022-11-23T16:51:56.412Z,97343.91
2022-11-23T16:54:25.300Z,97350.44
2022-11-23T16:56:53.159Z,97349.81
2022-11-23T16:59:22.214Z,97353.00
2022-11-23T17:01:57.055Z,97353.00
2022-11-23T17:04:25.173Z,97352.03
2022-11-23T17:06:51.951Z,97354.28
2022-11-23T17:09:18.792Z,97361.72
2022-11-23T17:11:48.309Z,97363.00
2022-11-23T17:14:18.889Z,97365.56
2022-11-23T17:17:02.255Z,97368.56
2022-11-23T17:19:30.690Z,97369.06
2022-11-23T17:21:57.913Z,97374.31
2022-11-23T17:24:24.740Z,97375.38
2022-11-23T17:26:53.815Z,97383.50
2022-11-23T17:29:21.573Z,97385.38
2022-11-23T17:31:50.241Z,97392.22
2022-11-23T17:34:17.869Z,97393.31
2022-11-23T17:36:46.578Z,97397.13
2022-11-23T17:39:26.179Z,97403.00
2022-11-23T17:41:53.331Z,97409.03
2022-11-23T17:44:20.756Z,97404.94
2022-11-23T17:46:47.902Z,97402.88
2022-11-23T17:49:17.926Z,97406.50
2022-11-23T17:51:45.565Z,97397.28
2022-11-23T17:54:12.689Z,97405.53
2022-11-23T17:56:39.426Z,97411.09
2022-11-23T17:59:09.026Z,97416.97
2022-11-23T18:01:36.399Z,97417.75
2022-11-23T18:04:05.130Z,97415.84
2022-11-23T18:06:32.306Z,97419.47
2022-11-23T18:08:59.042Z,97423.63
2022-11-23T18:11:25.860Z,97435.38
2022-11-23T18:13:55.062Z,97433.78
2022-11-23T18:16:23.608Z,97434.88
2022-11-23T18:18:50.996Z,97439.63
2022-11-23T18:21:18.613Z,97447.09
2022-11-23T18:23:45.446Z,97451.81
2022-11-23T18:26:25.532Z,97458.50
2022-11-23T18:28:54.315Z,97464.06
2022-11-23T18:31:22.008Z,97464.06
2022-11-23T18:33:48.887Z,97472.47
2022-11-23T18:36:16.180Z,97469.78
2022-11-23T18:38:47.276Z,97481.06
2022-11-23T18:41:17.233Z,97484.09
2022-11-23T18:43:45.369Z,97486.16
2022-11-23T18:46:18.843Z,97482.03
2022-11-23T18:48:47.744Z,97486.94
2022-11-23T18:51:16.840Z,97497.75
2022-11-23T18:53:48.249Z,97503.75
2022-11-23T18:56:15.056Z,97505.50
2022-11-23T18:58:43.593Z,97512.00
2022-11-23T19:01:19.592Z,97513.59
2022-11-23T19:03:48.584Z,97518.69
2022-11-23T19:06:17.099Z,97525.22
2022-11-23T19:08:46.467Z,97519.06
2022-11-23T19:11:19.206Z,97526.38
2022-11-23T19:13:49.183Z,97533.09
2022-11-23T19:16:25.155Z,97532.97
2022-11-23T19:19:01.560Z,97540.63
2022-11-23T19:21:31.345Z,97545.75
2022-11-23T19:24:00.152Z,97554.19
2022-11-23T19:26:28.086Z,97553.88
2022-11-23T19:28:58.108Z,97559.13
2022-11-23T19:31:27.334Z,97575.84
2022-11-23T19:33:58.401Z,97580.16
2022-11-23T19:36:25.773Z,97575.84
2022-11-23T19:38:52.574Z,97585.81
2022-11-23T19:41:22.942Z,97581.84
2022-11-23T19:43:53.789Z,97599.06
2022-11-23T19:46:22.714Z,97607.16
2022-11-23T19:48:49.955Z,97614.16
2022-11-23T19:51:19.064Z,97620.84
2022-11-23T19:53:50.687Z,97628.31
2022-11-23T19:56:20.313Z,97634.53
2022-11-23T19:58:51.104Z,97635.00
2022-11-23T20:01:20.147Z,97649.81
2022-11-23T20:03:50.878Z,97662.22
2022-11-23T20:06:24.973Z,97675.72
2022-11-23T20:08:56.708Z,97686.22
2022-11-23T20:11:24.895Z,97687.81
2022-11-23T20:13:55.484Z,97687.31
2022-11-23T20:16:26.107Z,97711.66
2022-11-23T20:19:16.197Z,97703.25
2022-11-23T20:21:43.022Z,97728.06
2022-11-23T20:24:12.846Z,97736.16
2022-11-23T20:26:41.110Z,97739.66
2022-11-23T20:29:08.800Z,97745.06
2022-11-23T20:31:36.460Z,97748.88
2022-11-23T20:34:07.109Z,97760.16
2022-11-23T20:36:37.591Z,97764.47
2022-11-23T20:39:07.227Z,97776.38
2022-11-23T20:41:36.660Z,97778.94
2022-11-23T20:44:13.327Z,97791.34
2022-11-23T20:49:27.526Z,97804.25
2022-11-23T20:51:54.359Z,97808.56
2022-11-23T20:54:21.216Z,97813.66
2022-11-23T20:56:47.970Z,97813.66
2022-11-23T20:59:14.780Z,97810.97
2022-11-23T21:01:41.643Z,97809.03
2022-11-23T21:04:09.059Z,97809.03
2022-11-23T21:06:39.558Z,97823.66
2022-11-23T21:09:08.747Z,97835.28
2022-11-23T21:11:54.371Z,97838.78
2022-11-23T21:14:24.666Z,97854.22
2022-11-23T21:16:57.000Z,97851.53
2022-11-23T21:19:33.299Z,97856.94
2022-11-23T21:22:07.383Z,97856.13
2022-11-23T21:24:35.560Z,97865.81
2022-11-23T21:27:08.011Z,97872.81
2022-11-23T21:29:34.916Z,97873.94
2022-11-23T21:32:01.670Z,97871.72
2022-11-23T21:34:30.378Z,97877.59
2022-11-23T21:36:58.741Z,97876.50
2022-11-23T21:39:25.764Z,97883.69
2022-11-23T21:41:53.835Z,97878.78
2022-11-23T21:44:22.714Z,97877.19
2022-11-23T21:46:49.877Z,97881.78
2022-11-23T21:49:16.841Z,97889.88
2022-11-23T21:51:44.589Z,97888.91
2022-11-23T21:54:15.249Z,97890.03
2022-11-23T21:56:43.711Z,97900.84
2022-11-23T21:59:10.941Z,97904.97
2022-11-23T22:01:38.818Z,97907.69
2022-11-23T22:04:09.774Z,97915.78
2022-11-23T22:06:37.941Z,97912.75
2022-11-23T22:09:07.444Z,97919.00
2022-11-23T22:11:35.746Z,97914.34
2022-11-23T22:14:05.161Z,97929.47
2022-11-23T22:16:37.533Z,97923.94
2022-11-23T22:19:06.068Z,97920.31
2022-11-23T22:21:35.460Z,97929.69
2022-11-23T22:24:02.925Z,97932.91
2022-11-23T22:26:30.064Z,97937.81
2022-11-23T22:28:57.261Z,97935.13
2022-11-23T22:31:25.466Z,97936.72
2022-11-23T22:33:53.423Z,97942.94
2022-11-23T22:36:24.516Z,97944.81
2022-11-23T22:39:01.581Z,97939.91
2022-11-23T22:41:33.439Z,97951.22
2022-11-23T22:44:00.334Z,97947.88
2022-11-23T22:46:27.176Z,97955.88
2022-11-23T22:48:54.416Z,97959.88
2022-11-23T22:51:23.003Z,97970.69
2022-11-23T22:53:58.436Z,97968.00
2022-11-23T22:56:26.177Z,97972.28
2022-11-23T22:58:53.537Z,97972.59
2022-11-23T23:01:23.311Z,97979.09
2022-11-23T23:03:55.488Z,97976.72
2022-11-23T23:06:28.513Z,97975.41
2022-11-23T23:08:58.192Z,97975.91
2022-11-23T23:11:26.678Z,97974.31
2022-11-23T23:13:53.629Z,97972.72
2022-11-23T23:16:21.633Z,97982.75
2022-11-23T23:18:48.550Z,97979.25
2022-11-23T23:21:22.684Z,97976.53
2022-11-23T23:23:51.510Z,97980.84
2022-11-23T23:26:22.314Z,97976.03
2022-11-23T23:28:49.393Z,97989.91
2022-11-23T23:31:17.307Z,97996.41
2022-11-23T23:33:45.571Z,97998.63
2022-11-23T23:36:15.545Z,97999.72
2022-11-23T23:38:43.234Z,98003.72
2022-11-23T23:41:11.960Z,98003.09
2022-11-23T23:43:39.590Z,98006.63
2022-11-23T23:46:08.700Z,98011.22
2022-11-23T23:48:37.296Z,98005.81
2022-11-23T23:51:14.888Z,98018.53
2022-11-23T23:53:42.342Z,98004.19
2022-11-23T23:56:16.938Z,98010.44
2022-11-23T23:58:44.287Z,98013.91
